sensor_id;sensor_type;location;lat;lon;timestamp;temperature;humidity
69626;DHT22;56847;51.984;5.088;2024-01-15T00:01:56;5.20;85.30
69626;DHT22;56847;51.984;5.088;2024-01-15T00:04:23;5.20;85.30
69626;DHT22;56847;51.984;5.088;2024-01-15T00:06:50;5.10;85.30
69626;DHT22;56847;51.984;5.088;2024-01-15T00:09:17;5.10;85.30
69626;DHT22;56847;51.984;5.088;2024-01-15T00:11:48;5.10;85.10
69626;DHT22;56847;51.984;5.088;2024-01-15T00:14:15;5.10;85.00
69626;DHT22;56847;51.984;5.088;2024-01-15T00:16:47;5.00;84.90
69626;DHT22;56847;51.984;5.088;2024-01-15T00:19:19;5.00;84.90
69626;DHT22;56847;51.984;5.088;2024-01-15T00:21:46;5.00;84.90
69626;DHT22;56847;51.984;5.088;2024-01-15T00:24:14;5.00;84.80
69626;DHT22;56847;51.984;5.088;2024-01-15T00:26:41;4.90;84.70
69626;DHT22;56847;51.984;5.088;2024-01-15T00:29:08;4.90;84.80
69626;DHT22;56847;51.984;5.088;2024-01-15T00:31:35;4.90;84.80
69626;DHT22;56847;51.984;5.088;2024-01-15T00:34:02;4.90;84.70
69626;DHT22;56847;51.984;5.088;2024-01-15T00:36:30;4.80;84.70
69626;DHT22;56847;51.984;5.088;2024-01-15T00:38:56;4.80;84.80
69626;DHT22;56847;51.984;5.088;2024-01-15T00:41:23;4.80;84.90
69626;DHT22;56847;51.984;5.088;2024-01-15T00:43:50;4.80;85.00
69626;DHT22;56847;51.984;5.088;2024-01-15T00:46:17;4.80;85.00
69626;DHT22;56847;51.984;5.088;2024-01-15T00:48:44;4.70;85.00
69626;DHT22;56847;51.984;5.088;2024-01-15T00:51:12;4.70;85.00
69626;DHT22;56847;51.984;5.088;2024-01-15T00:53:40;4.70;85.10
69626;DHT22;56847;51.984;5.088;2024-01-15T00:56:07;4.70;85.10
69626;DHT22;56847;51.984;5.088;2024-01-15T00:58:34;4.70;85.10
69626;DHT22;56847;51.984;5.088;2024-01-15T01:01:01;4.70;85.10
69626;DHT22;56847;51.984;5.088;2024-01-15T01:03:28;4.70;85.10
69626;DHT22;56847;51.984;5.088;2024-01-15T01:05:55;4.70;85.10
69626;DHT22;56847;51.984;5.088;2024-01-15T01:08:21;4.70;85.20
69626;DHT22;56847;51.984;5.088;2024-01-15T01:10:48;4.70;85.20
69626;DHT22;56847;51.984;5.088;2024-01-15T01:13:15;4.70;85.20
69626;DHT22;56847;51.984;5.088;2024-01-15T01:15:42;4.70;85.20
69626;DHT22;56847;51.984;5.088;2024-01-15T01:18:09;4.70;85.20
69626;DHT22;56847;51.984;5.088;2024-01-15T01:20:36;4.70;85.20
69626;DHT22;56847;51.984;5.088;2024-01-15T01:23:04;4.70;85.20
69626;DHT22;56847;51.984;5.088;2024-01-15T01:25:30;4.70;85.10
69626;DHT22;56847;51.984;5.088;2024-01-15T01:27:57;4.70;85.00
69626;DHT22;56847;51.984;5.088;2024-01-15T01:30:24;4.70;85.00
69626;DHT22;56847;51.984;5.088;2024-01-15T01:32:51;4.70;85.00
69626;DHT22;56847;51.984;5.088;2024-01-15T01:35:18;4.60;85.00
69626;DHT22;56847;51.984;5.088;2024-01-15T01:37:45;4.60;85.00
69626;DHT22;56847;51.984;5.088;2024-01-15T01:40:12;4.60;85.00
69626;DHT22;56847;51.984;5.088;2024-01-15T01:42:39;4.60;85.10
69626;DHT22;56847;51.984;5.088;2024-01-15T01:45:07;4.60;85.30
69626;DHT22;56847;51.984;5.088;2024-01-15T01:47:34;4.70;85.70
69626;DHT22;56847;51.984;5.088;2024-01-15T01:50:02;4.80;86.00
69626;DHT22;56847;51.984;5.088;2024-01-15T01:52:29;4.80;86.10
69626;DHT22;56847;51.984;5.088;2024-01-15T01:54:57;4.90;86.10
69626;DHT22;56847;51.984;5.088;2024-01-15T01:57:25;4.90;86.00
69626;DHT22;56847;51.984;5.088;2024-01-15T01:59:53;4.90;85.60
69626;DHT22;56847;51.984;5.088;2024-01-15T02:02:21;4.90;85.40
69626;DHT22;56847;51.984;5.088;2024-01-15T02:04:49;4.90;85.10
69626;DHT22;56847;51.984;5.088;2024-01-15T02:07:19;4.80;85.00
69626;DHT22;56847;51.984;5.088;2024-01-15T02:09:46;4.80;85.00
69626;DHT22;56847;51.984;5.088;2024-01-15T02:12:13;4.80;85.00
69626;DHT22;56847;51.984;5.088;2024-01-15T02:14:43;4.80;85.00
69626;DHT22;56847;51.984;5.088;2024-01-15T02:17:10;4.80;84.90
69626;DHT22;56847;51.984;5.088;2024-01-15T02:19:37;4.70;84.80
69626;DHT22;56847;51.984;5.088;2024-01-15T02:22:06;4.70;84.80
69626;DHT22;56847;51.984;5.088;2024-01-15T02:24:33;4.70;84.80
69626;DHT22;56847;51.984;5.088;2024-01-15T02:27:00;4.70;85.00
69626;DHT22;56847;51.984;5.088;2024-01-15T02:29:27;4.70;85.00
69626;DHT22;56847;51.984;5.088;2024-01-15T02:31:54;4.70;85.10
69626;DHT22;56847;51.984;5.088;2024-01-15T02:34:21;4.70;85.10
69626;DHT22;56847;51.984;5.088;2024-01-15T02:36:48;4.70;85.00
69626;DHT22;56847;51.984;5.088;2024-01-15T02:39:15;4.70;85.00
69626;DHT22;56847;51.984;5.088;2024-01-15T02:41:42;4.70;85.00
69626;DHT22;56847;51.984;5.088;2024-01-15T02:44:09;4.70;85.10
69626;DHT22;56847;51.984;5.088;2024-01-15T02:46:36;4.70;85.20
69626;DHT22;56847;51.984;5.088;2024-01-15T02:49:03;4.70;85.30
69626;DHT22;56847;51.984;5.088;2024-01-15T02:51:30;4.70;85.40
69626;DHT22;56847;51.984;5.088;2024-01-15T02:53:57;4.80;85.70
69626;DHT22;56847;51.984;5.088;2024-01-15T02:56:24;4.90;85.90
69626;DHT22;56847;51.984;5.088;2024-01-15T02:58:51;4.90;86.00
69626;DHT22;56847;51.984;5.088;2024-01-15T03:01:19;5.00;85.80
69626;DHT22;56847;51.984;5.088;2024-01-15T03:03:46;5.00;85.70
69626;DHT22;56847;51.984;5.088;2024-01-15T03:06:13;5.00;85.30
69626;DHT22;56847;51.984;5.088;2024-01-15T03:08:40;4.90;85.10
69626;DHT22;56847;51.984;5.088;2024-01-15T03:11:07;4.90;85.00
69626;DHT22;56847;51.984;5.088;2024-01-15T03:13:36;4.90;84.90
69626;DHT22;56847;51.984;5.088;2024-01-15T03:16:05;4.90;84.90
69626;DHT22;56847;51.984;5.088;2024-01-15T03:18:32;4.80;84.80
69626;DHT22;56847;51.984;5.088;2024-01-15T03:20:59;4.80;84.70
69626;DHT22;56847;51.984;5.088;2024-01-15T03:23:28;4.80;84.50
69626;DHT22;56847;51.984;5.088;2024-01-15T03:25:55;4.70;84.40
69626;DHT22;56847;51.984;5.088;2024-01-15T03:28:22;4.70;84.40
69626;DHT22;56847;51.984;5.088;2024-01-15T03:30:49;4.70;84.40
69626;DHT22;56847;51.984;5.088;2024-01-15T03:33:16;4.70;84.40
69626;DHT22;56847;51.984;5.088;2024-01-15T03:35:43;4.60;84.40
69626;DHT22;56847;51.984;5.088;2024-01-15T03:38:10;4.60;84.30
69626;DHT22;56847;51.984;5.088;2024-01-15T03:40:37;4.60;84.30
69626;DHT22;56847;51.984;5.088;2024-01-15T03:43:04;4.60;84.60
69626;DHT22;56847;51.984;5.088;2024-01-15T03:45:31;4.60;85.10
69626;DHT22;56847;51.984;5.088;2024-01-15T03:48:00;4.60;85.60
69626;DHT22;56847;51.984;5.088;2024-01-15T03:50:27;4.70;85.90
69626;DHT22;56847;51.984;5.088;2024-01-15T03:52:54;4.80;86.10
69626;DHT22;56847;51.984;5.088;2024-01-15T03:55:21;4.90;86.00
69626;DHT22;56847;51.984;5.088;2024-01-15T03:57:48;4.90;86.00
69626;DHT22;56847;51.984;5.088;2024-01-15T04:00:16;5.00;86.00
69626;DHT22;56847;51.984;5.088;2024-01-15T04:02:45;5.00;85.90
69626;DHT22;56847;51.984;5.088;2024-01-15T04:05:12;5.10;85.70
69626;DHT22;56847;51.984;5.088;2024-01-15T04:07:39;5.10;85.30
69626;DHT22;56847;51.984;5.088;2024-01-15T04:10:06;5.10;85.30
69626;DHT22;56847;51.984;5.088;2024-01-15T04:12:33;5.10;85.40
69626;DHT22;56847;51.984;5.088;2024-01-15T04:15:00;5.10;85.60
69626;DHT22;56847;51.984;5.088;2024-01-15T04:17:27;5.10;85.70
69626;DHT22;56847;51.984;5.088;2024-01-15T04:19:54;5.10;85.80
69626;DHT22;56847;51.984;5.088;2024-01-15T04:22:23;5.10;85.60
69626;DHT22;56847;51.984;5.088;2024-01-15T04:24:50;5.00;85.30
69626;DHT22;56847;51.984;5.088;2024-01-15T04:27:17;5.00;85.30
69626;DHT22;56847;51.984;5.088;2024-01-15T04:29:44;5.00;85.50
69626;DHT22;56847;51.984;5.088;2024-01-15T04:32:11;5.00;85.80
69626;DHT22;56847;51.984;5.088;2024-01-15T04:34:38;5.00;85.80
69626;DHT22;56847;51.984;5.088;2024-01-15T04:37:05;5.00;85.90
69626;DHT22;56847;51.984;5.088;2024-01-15T04:39:32;5.00;85.90
69626;DHT22;56847;51.984;5.088;2024-01-15T04:41:59;5.00;85.60
69626;DHT22;56847;51.984;5.088;2024-01-15T04:44:26;4.90;85.50
69626;DHT22;56847;51.984;5.088;2024-01-15T04:46:53;4.90;85.40
69626;DHT22;56847;51.984;5.088;2024-01-15T04:49:20;4.80;85.40
69626;DHT22;56847;51.984;5.088;2024-01-15T04:51:47;4.80;85.40
69626;DHT22;56847;51.984;5.088;2024-01-15T04:54:14;4.70;85.50
69626;DHT22;56847;51.984;5.088;2024-01-15T04:56:45;4.60;85.60
69626;DHT22;56847;51.984;5.088;2024-01-15T04:59:13;4.60;85.70
69626;DHT22;56847;51.984;5.088;2024-01-15T05:01:41;4.60;86.20
69626;DHT22;56847;51.984;5.088;2024-01-15T05:04:09;4.60;86.50
69626;DHT22;56847;51.984;5.088;2024-01-15T05:06:36;4.70;86.70
69626;DHT22;56847;51.984;5.088;2024-01-15T05:09:03;4.70;86.80
69626;DHT22;56847;51.984;5.088;2024-01-15T05:11:31;4.70;86.80
69626;DHT22;56847;51.984;5.088;2024-01-15T05:13:58;4.80;86.70
69626;DHT22;56847;51.984;5.088;2024-01-15T05:16:25;4.80;86.60
69626;DHT22;56847;51.984;5.088;2024-01-15T05:18:52;4.80;86.60
69626;DHT22;56847;51.984;5.088;2024-01-15T05:21:19;4.80;86.20
69626;DHT22;56847;51.984;5.088;2024-01-15T05:23:46;4.80;86.20
69626;DHT22;56847;51.984;5.088;2024-01-15T05:26:13;4.80;86.40
69626;DHT22;56847;51.984;5.088;2024-01-15T05:28:42;4.80;86.60
69626;DHT22;56847;51.984;5.088;2024-01-15T05:31:09;4.80;86.50
69626;DHT22;56847;51.984;5.088;2024-01-15T05:33:38;4.80;86.40
69626;DHT22;56847;51.984;5.088;2024-01-15T05:36:05;4.70;86.30
69626;DHT22;56847;51.984;5.088;2024-01-15T05:38:33;4.70;86.30
69626;DHT22;56847;51.984;5.088;2024-01-15T05:40:59;4.70;86.30
69626;DHT22;56847;51.984;5.088;2024-01-15T05:43:26;4.70;86.20
69626;DHT22;56847;51.984;5.088;2024-01-15T05:45:53;4.60;86.10
69626;DHT22;56847;51.984;5.088;2024-01-15T05:48:20;4.60;86.10
69626;DHT22;56847;51.984;5.088;2024-01-15T05:50:47;4.60;86.20
69626;DHT22;56847;51.984;5.088;2024-01-15T05:53:14;4.60;86.30
69626;DHT22;56847;51.984;5.088;2024-01-15T05:55:41;4.60;86.40
69626;DHT22;56847;51.984;5.088;2024-01-15T05:58:08;4.60;86.40
69626;DHT22;56847;51.984;5.088;2024-01-15T06:00:35;4.60;86.60
69626;DHT22;56847;51.984;5.088;2024-01-15T06:03:03;4.60;86.70
69626;DHT22;56847;51.984;5.088;2024-01-15T06:05:30;4.60;86.70
69626;DHT22;56847;51.984;5.088;2024-01-15T06:07:57;4.60;86.90
69626;DHT22;56847;51.984;5.088;2024-01-15T06:10:24;4.70;86.80
69626;DHT22;56847;51.984;5.088;2024-01-15T06:12:51;4.70;86.90
69626;DHT22;56847;51.984;5.088;2024-01-15T06:15:18;4.70;86.60
69626;DHT22;56847;51.984;5.088;2024-01-15T06:17:45;4.60;86.10
69626;DHT22;56847;51.984;5.088;2024-01-15T06:20:12;4.60;86.20
69626;DHT22;56847;51.984;5.088;2024-01-15T06:22:39;4.60;86.20
69626;DHT22;56847;51.984;5.088;2024-01-15T06:25:08;4.60;86.40
69626;DHT22;56847;51.984;5.088;2024-01-15T06:27:35;4.60;86.50
69626;DHT22;56847;51.984;5.088;2024-01-15T06:30:02;4.50;86.50
69626;DHT22;56847;51.984;5.088;2024-01-15T06:32:30;4.50;86.60
69626;DHT22;56847;51.984;5.088;2024-01-15T06:34:57;4.60;86.60
69626;DHT22;56847;51.984;5.088;2024-01-15T06:37:24;4.50;86.60
69626;DHT22;56847;51.984;5.088;2024-01-15T06:39:51;4.60;86.80
69626;DHT22;56847;51.984;5.088;2024-01-15T06:42:18;4.60;87.00
69626;DHT22;56847;51.984;5.088;2024-01-15T06:44:45;4.60;87.00
69626;DHT22;56847;51.984;5.088;2024-01-15T06:47:12;4.60;86.70
69626;DHT22;56847;51.984;5.088;2024-01-15T06:49:39;4.60;86.60
69626;DHT22;56847;51.984;5.088;2024-01-15T06:52:09;4.60;86.30
69626;DHT22;56847;51.984;5.088;2024-01-15T06:54:36;4.60;86.20
69626;DHT22;56847;51.984;5.088;2024-01-15T06:57:03;4.50;86.20
69626;DHT22;56847;51.984;5.088;2024-01-15T06:59:31;4.50;86.20
69626;DHT22;56847;51.984;5.088;2024-01-15T07:01:57;4.50;86.30
69626;DHT22;56847;51.984;5.088;2024-01-15T07:04:26;4.50;86.50
69626;DHT22;56847;51.984;5.088;2024-01-15T07:06:53;4.50;86.80
69626;DHT22;56847;51.984;5.088;2024-01-15T07:09:20;4.50;86.80
69626;DHT22;56847;51.984;5.088;2024-01-15T07:11:47;4.60;87.00
69626;DHT22;56847;51.984;5.088;2024-01-15T07:14:14;4.60;87.00
69626;DHT22;56847;51.984;5.088;2024-01-15T07:16:41;4.60;87.10
69626;DHT22;56847;51.984;5.088;2024-01-15T07:19:11;4.70;87.10
69626;DHT22;56847;51.984;5.088;2024-01-15T07:21:42;4.70;87.20
69626;DHT22;56847;51.984;5.088;2024-01-15T07:24:10;4.70;87.00
69626;DHT22;56847;51.984;5.088;2024-01-15T07:26:37;4.70;86.60
69626;DHT22;56847;51.984;5.088;2024-01-15T07:29:04;4.70;86.70
69626;DHT22;56847;51.984;5.088;2024-01-15T07:31:31;4.70;86.90
69626;DHT22;56847;51.984;5.088;2024-01-15T07:33:59;4.80;86.80
69626;DHT22;56847;51.984;5.088;2024-01-15T07:36:27;4.70;86.30
69626;DHT22;56847;51.984;5.088;2024-01-15T07:38:54;4.70;86.00
69626;DHT22;56847;51.984;5.088;2024-01-15T07:41:21;4.60;85.70
69626;DHT22;56847;51.984;5.088;2024-01-15T07:43:48;4.50;85.50
69626;DHT22;56847;51.984;5.088;2024-01-15T07:46:15;4.50;85.50
69626;DHT22;56847;51.984;5.088;2024-01-15T07:48:42;4.40;85.50
69626;DHT22;56847;51.984;5.088;2024-01-15T07:51:11;4.30;85.80
69626;DHT22;56847;51.984;5.088;2024-01-15T07:53:38;4.30;86.00
69626;DHT22;56847;51.984;5.088;2024-01-15T07:56:05;4.30;86.10
69626;DHT22;56847;51.984;5.088;2024-01-15T07:58:32;4.30;86.20
69626;DHT22;56847;51.984;5.088;2024-01-15T08:00:59;4.30;86.10
69626;DHT22;56847;51.984;5.088;2024-01-15T08:03:26;4.20;86.20
69626;DHT22;56847;51.984;5.088;2024-01-15T08:05:54;4.20;86.30
69626;DHT22;56847;51.984;5.088;2024-01-15T08:08:22;4.10;86.40
69626;DHT22;56847;51.984;5.088;2024-01-15T08:10:49;4.10;86.40
69626;DHT22;56847;51.984;5.088;2024-01-15T08:13:16;4.10;86.60
69626;DHT22;56847;51.984;5.088;2024-01-15T08:15:43;4.10;86.50
69626;DHT22;56847;51.984;5.088;2024-01-15T08:18:14;4.20;86.60
69626;DHT22;56847;51.984;5.088;2024-01-15T08:20:41;4.20;86.70
69626;DHT22;56847;51.984;5.088;2024-01-15T08:23:08;4.20;86.70
69626;DHT22;56847;51.984;5.088;2024-01-15T08:25:38;4.20;86.70
69626;DHT22;56847;51.984;5.088;2024-01-15T08:28:05;4.20;86.70
69626;DHT22;56847;51.984;5.088;2024-01-15T08:30:32;4.20;86.70
69626;DHT22;56847;51.984;5.088;2024-01-15T08:33:00;4.20;86.60
69626;DHT22;56847;51.984;5.088;2024-01-15T08:35:40;4.20;86.80
69626;DHT22;56847;51.984;5.088;2024-01-15T08:38:07;4.30;87.00
69626;DHT22;56847;51.984;5.088;2024-01-15T08:40:34;4.30;87.00
69626;DHT22;56847;51.984;5.088;2024-01-15T08:43:01;4.40;87.10
69626;DHT22;56847;51.984;5.088;2024-01-15T08:45:29;4.40;87.00
69626;DHT22;56847;51.984;5.088;2024-01-15T08:47:58;4.40;86.90
69626;DHT22;56847;51.984;5.088;2024-01-15T08:50:26;4.40;87.00
69626;DHT22;56847;51.984;5.088;2024-01-15T08:52:53;4.40;87.00
69626;DHT22;56847;51.984;5.088;2024-01-15T08:55:21;4.50;87.10
69626;DHT22;56847;51.984;5.088;2024-01-15T08:57:49;4.50;87.00
69626;DHT22;56847;51.984;5.088;2024-01-15T09:00:17;4.50;87.00
69626;DHT22;56847;51.984;5.088;2024-01-15T09:02:44;4.50;86.90
69626;DHT22;56847;51.984;5.088;2024-01-15T09:05:11;4.50;86.60
69626;DHT22;56847;51.984;5.088;2024-01-15T09:07:40;4.50;86.60
69626;DHT22;56847;51.984;5.088;2024-01-15T09:10:07;4.60;86.90
69626;DHT22;56847;51.984;5.088;2024-01-15T09:12:34;4.60;87.00
69626;DHT22;56847;51.984;5.088;2024-01-15T09:15:01;4.60;87.30
69626;DHT22;56847;51.984;5.088;2024-01-15T09:17:32;4.70;87.60
69626;DHT22;56847;51.984;5.088;2024-01-15T09:19:59;4.90;88.30
69626;DHT22;56847;51.984;5.088;2024-01-15T09:22:26;5.10;88.60
69626;DHT22;56847;51.984;5.088;2024-01-15T09:24:53;5.20;87.90
69626;DHT22;56847;51.984;5.088;2024-01-15T09:27:20;5.20;87.10
69626;DHT22;56847;51.984;5.088;2024-01-15T09:29:47;5.20;86.40
69626;DHT22;56847;51.984;5.088;2024-01-15T09:32:14;5.10;86.00
69626;DHT22;56847;51.984;5.088;2024-01-15T09:34:47;5.00;85.90
69626;DHT22;56847;51.984;5.088;2024-01-15T09:37:16;5.00;86.10
69626;DHT22;56847;51.984;5.088;2024-01-15T09:40:13;5.00;86.10
69626;DHT22;56847;51.984;5.088;2024-01-15T09:42:44;5.00;86.10
69626;DHT22;56847;51.984;5.088;2024-01-15T09:45:13;4.90;86.00
69626;DHT22;56847;51.984;5.088;2024-01-15T09:47:43;4.90;85.90
69626;DHT22;56847;51.984;5.088;2024-01-15T09:50:13;4.80;85.80
69626;DHT22;56847;51.984;5.088;2024-01-15T09:52:44;4.80;85.90
69626;DHT22;56847;51.984;5.088;2024-01-15T09:55:13;4.80;86.00
69626;DHT22;56847;51.984;5.088;2024-01-15T09:57:41;4.80;86.30
69626;DHT22;56847;51.984;5.088;2024-01-15T10:00:11;4.80;87.10
69626;DHT22;56847;51.984;5.088;2024-01-15T10:02:39;4.90;87.20
69626;DHT22;56847;51.984;5.088;2024-01-15T10:05:07;5.00;86.70
69626;DHT22;56847;51.984;5.088;2024-01-15T10:07:36;5.00;86.20
69626;DHT22;56847;51.984;5.088;2024-01-15T10:10:19;4.90;85.90
69626;DHT22;56847;51.984;5.088;2024-01-15T10:12:46;4.90;85.90
69626;DHT22;56847;51.984;5.088;2024-01-15T10:15:22;4.90;86.00
69626;DHT22;56847;51.984;5.088;2024-01-15T10:17:51;4.90;86.10
69626;DHT22;56847;51.984;5.088;2024-01-15T10:20:24;4.90;86.50
69626;DHT22;56847;51.984;5.088;2024-01-15T10:23:13;5.00;86.70
69626;DHT22;56847;51.984;5.088;2024-01-15T10:25:46;5.00;86.60
69626;DHT22;56847;51.984;5.088;2024-01-15T10:28:17;5.10;86.90
69626;DHT22;56847;51.984;5.088;2024-01-15T10:30:45;5.20;87.20
69626;DHT22;56847;51.984;5.088;2024-01-15T10:33:13;5.30;87.20
69626;DHT22;56847;51.984;5.088;2024-01-15T10:35:45;5.60;87.90
69626;DHT22;56847;51.984;5.088;2024-01-15T10:38:19;5.80;88.10
69626;DHT22;56847;51.984;5.088;2024-01-15T10:40:55;5.90;87.00
69626;DHT22;56847;51.984;5.088;2024-01-15T10:43:23;5.90;86.10
69626;DHT22;56847;51.984;5.088;2024-01-15T10:45:55;5.80;85.50
69626;DHT22;56847;51.984;5.088;2024-01-15T10:48:22;5.80;85.80
69626;DHT22;56847;51.984;5.088;2024-01-15T10:50:50;5.80;86.70
69626;DHT22;56847;51.984;5.088;2024-01-15T10:53:17;6.00;87.50
69626;DHT22;56847;51.984;5.088;2024-01-15T10:55:46;6.20;87.70
69626;DHT22;56847;51.984;5.088;2024-01-15T10:58:18;6.30;87.40
69626;DHT22;56847;51.984;5.088;2024-01-15T11:00:47;6.30;86.60
69626;DHT22;56847;51.984;5.088;2024-01-15T11:03:14;6.20;85.60
69626;DHT22;56847;51.984;5.088;2024-01-15T11:05:44;6.10;84.90
69626;DHT22;56847;51.984;5.088;2024-01-15T11:08:11;5.90;84.80
69626;DHT22;56847;51.984;5.088;2024-01-15T11:10:45;5.80;84.90
69626;DHT22;56847;51.984;5.088;2024-01-15T11:16:07;5.70;84.90
69626;DHT22;56847;51.984;5.088;2024-01-15T11:18:39;5.50;84.10
69626;DHT22;56847;51.984;5.088;2024-01-15T11:23:54;5.10;83.90
69626;DHT22;56847;51.984;5.088;2024-01-15T11:29:28;5.00;85.10
69626;DHT22;56847;51.984;5.088;2024-01-15T11:31:59;5.00;86.00
69626;DHT22;56847;51.984;5.088;2024-01-15T11:37:19;5.30;87.30
69626;DHT22;56847;51.984;5.088;2024-01-15T11:39:47;5.50;87.00
69626;DHT22;56847;51.984;5.088;2024-01-15T11:42:23;5.50;86.30
69626;DHT22;56847;51.984;5.088;2024-01-15T11:45:00;5.40;85.30
69626;DHT22;56847;51.984;5.088;2024-01-15T11:48:10;5.30;85.10
69626;DHT22;56847;51.984;5.088;2024-01-15T11:50:49;5.20;85.30
69626;DHT22;56847;51.984;5.088;2024-01-15T11:53:36;5.10;85.60
69626;DHT22;56847;51.984;5.088;2024-01-15T11:56:09;5.10;85.80
69626;DHT22;56847;51.984;5.088;2024-01-15T11:58:38;5.10;86.00
69626;DHT22;56847;51.984;5.088;2024-01-15T12:01:05;5.20;86.00
69626;DHT22;56847;51.984;5.088;2024-01-15T12:03:33;5.20;86.30
69626;DHT22;56847;51.984;5.088;2024-01-15T12:06:01;5.20;86.50
69626;DHT22;56847;51.984;5.088;2024-01-15T12:08:28;5.30;86.80
69626;DHT22;56847;51.984;5.088;2024-01-15T12:10:55;5.30;86.70
69626;DHT22;56847;51.984;5.088;2024-01-15T12:13:23;5.40;86.50
69626;DHT22;56847;51.984;5.088;2024-01-15T12:15:54;5.30;86.30
69626;DHT22;56847;51.984;5.088;2024-01-15T12:18:21;5.40;86.80
69626;DHT22;56847;51.984;5.088;2024-01-15T12:20:48;5.50;87.20
69626;DHT22;56847;51.984;5.088;2024-01-15T12:23:20;5.60;87.30
69626;DHT22;56847;51.984;5.088;2024-01-15T12:25:47;5.70;87.20
69626;DHT22;56847;51.984;5.088;2024-01-15T12:28:14;5.70;86.90
69626;DHT22;56847;51.984;5.088;2024-01-15T12:30:41;5.70;86.80
69626;DHT22;56847;51.984;5.088;2024-01-15T12:33:09;5.70;86.40
69626;DHT22;56847;51.984;5.088;2024-01-15T12:35:37;5.70;86.30
69626;DHT22;56847;51.984;5.088;2024-01-15T12:38:04;5.70;86.10
69626;DHT22;56847;51.984;5.088;2024-01-15T12:40:33;5.60;85.70
69626;DHT22;56847;51.984;5.088;2024-01-15T12:43:03;5.50;85.50
69626;DHT22;56847;51.984;5.088;2024-01-15T12:45:32;5.50;86.00
69626;DHT22;56847;51.984;5.088;2024-01-15T12:47:59;5.50;86.40
69626;DHT22;56847;51.984;5.088;2024-01-15T12:50:27;5.60;86.20
69626;DHT22;56847;51.984;5.088;2024-01-15T12:52:54;5.60;86.30
69626;DHT22;56847;51.984;5.088;2024-01-15T12:55:21;5.70;86.80
69626;DHT22;56847;51.984;5.088;2024-01-15T12:57:50;5.80;87.50
69626;DHT22;56847;51.984;5.088;2024-01-15T13:00:21;6.00;87.70
69626;DHT22;56847;51.984;5.088;2024-01-15T13:02:48;6.20;87.80
69626;DHT22;56847;51.984;5.088;2024-01-15T13:05:17;6.30;87.20
69626;DHT22;56847;51.984;5.088;2024-01-15T13:07:51;6.30;85.70
69626;DHT22;56847;51.984;5.088;2024-01-15T13:10:19;6.10;85.20
69626;DHT22;56847;51.984;5.088;2024-01-15T13:12:46;6.00;84.80
69626;DHT22;56847;51.984;5.088;2024-01-15T13:15:14;5.90;85.20
69626;DHT22;56847;51.984;5.088;2024-01-15T13:17:42;5.80;85.40
69626;DHT22;56847;51.984;5.088;2024-01-15T13:20:11;5.90;85.40
69626;DHT22;56847;51.984;5.088;2024-01-15T13:22:39;5.90;85.70
69626;DHT22;56847;51.984;5.088;2024-01-15T13:25:08;5.90;85.80
69626;DHT22;56847;51.984;5.088;2024-01-15T13:27:36;5.90;86.40
69626;DHT22;56847;51.984;5.088;2024-01-15T13:30:05;6.00;86.30
69626;DHT22;56847;51.984;5.088;2024-01-15T13:32:34;6.20;87.20
69626;DHT22;56847;51.984;5.088;2024-01-15T13:35:02;6.30;87.50
69626;DHT22;56847;51.984;5.088;2024-01-15T13:37:32;6.30;86.90
69626;DHT22;56847;51.984;5.088;2024-01-15T13:39:59;6.30;85.80
69626;DHT22;56847;51.984;5.088;2024-01-15T13:42:26;6.20;85.90
69626;DHT22;56847;51.984;5.088;2024-01-15T13:44:54;6.20;85.80
69626;DHT22;56847;51.984;5.088;2024-01-15T13:47:21;6.10;85.40
69626;DHT22;56847;51.984;5.088;2024-01-15T13:49:49;6.10;85.40
69626;DHT22;56847;51.984;5.088;2024-01-15T13:52:16;6.00;85.50
69626;DHT22;56847;51.984;5.088;2024-01-15T13:54:43;6.00;85.40
69626;DHT22;56847;51.984;5.088;2024-01-15T13:57:17;5.90;85.40
69626;DHT22;56847;51.984;5.088;2024-01-15T13:59:48;5.90;85.00
69626;DHT22;56847;51.984;5.088;2024-01-15T14:02:16;5.90;85.50
69626;DHT22;56847;51.984;5.088;2024-01-15T14:04:48;5.90;85.40
69626;DHT22;56847;51.984;5.088;2024-01-15T14:07:16;5.90;86.00
69626;DHT22;56847;51.984;5.088;2024-01-15T14:09:43;6.10;86.00
69626;DHT22;56847;51.984;5.088;2024-01-15T14:12:10;6.10;85.00
69626;DHT22;56847;51.984;5.088;2024-01-15T14:14:38;6.10;85.40
69626;DHT22;56847;51.984;5.088;2024-01-15T14:17:09;6.10;85.40
69626;DHT22;56847;51.984;5.088;2024-01-15T14:19:39;6.00;85.00
69626;DHT22;56847;51.984;5.088;2024-01-15T14:22:11;5.90;84.80
69626;DHT22;56847;51.984;5.088;2024-01-15T14:24:38;5.90;84.30
69626;DHT22;56847;51.984;5.088;2024-01-15T14:27:08;5.70;84.00
69626;DHT22;56847;51.984;5.088;2024-01-15T14:29:38;5.60;84.10
69626;DHT22;56847;51.984;5.088;2024-01-15T14:32:05;5.50;84.30
69626;DHT22;56847;51.984;5.088;2024-01-15T14:34:33;5.40;84.20
69626;DHT22;56847;51.984;5.088;2024-01-15T14:37:04;5.40;84.50
69626;DHT22;56847;51.984;5.088;2024-01-15T14:39:36;5.30;85.00
69626;DHT22;56847;51.984;5.088;2024-01-15T14:42:15;5.40;85.20
69626;DHT22;56847;51.984;5.088;2024-01-15T14:44:42;5.40;85.40
69626;DHT22;56847;51.984;5.088;2024-01-15T14:47:16;5.40;85.30
69626;DHT22;56847;51.984;5.088;2024-01-15T14:50:29;5.40;85.40
69626;DHT22;56847;51.984;5.088;2024-01-15T14:52:54;5.50;85.70
69626;DHT22;56847;51.984;5.088;2024-01-15T14:55:24;5.50;85.80
69626;DHT22;56847;51.984;5.088;2024-01-15T14:57:55;5.50;85.20
69626;DHT22;56847;51.984;5.088;2024-01-15T15:00:24;5.50;85.00
69626;DHT22;56847;51.984;5.088;2024-01-15T15:02:54;5.40;84.60
69626;DHT22;56847;51.984;5.088;2024-01-15T15:05:31;5.40;84.50
69626;DHT22;56847;51.984;5.088;2024-01-15T15:08:19;5.30;84.60
69626;DHT22;56847;51.984;5.088;2024-01-15T15:10:48;5.30;84.80
69626;DHT22;56847;51.984;5.088;2024-01-15T15:13:15;5.30;84.40
69626;DHT22;56847;51.984;5.088;2024-01-15T15:16:01;5.20;84.10
69626;DHT22;56847;51.984;5.088;2024-01-15T15:18:30;5.20;84.20
69626;DHT22;56847;51.984;5.088;2024-01-15T15:21:01;5.20;84.60
69626;DHT22;56847;51.984;5.088;2024-01-15T15:23:28;5.20;84.40
69626;DHT22;56847;51.984;5.088;2024-01-15T15:26:25;5.30;84.20
69626;DHT22;56847;51.984;5.088;2024-01-15T15:28:52;5.30;84.50
69626;DHT22;56847;51.984;5.088;2024-01-15T15:31:19;5.40;84.30
69626;DHT22;56847;51.984;5.088;2024-01-15T15:33:53;5.40;84.00
69626;DHT22;56847;51.984;5.088;2024-01-15T15:36:21;5.30;84.10
69626;DHT22;56847;51.984;5.088;2024-01-15T15:38:48;5.40;83.90
69626;DHT22;56847;51.984;5.088;2024-01-15T15:41:15;5.30;84.00
69626;DHT22;56847;51.984;5.088;2024-01-15T15:43:42;5.30;83.80
69626;DHT22;56847;51.984;5.088;2024-01-15T15:46:09;5.30;84.00
69626;DHT22;56847;51.984;5.088;2024-01-15T15:48:37;5.30;83.90
69626;DHT22;56847;51.984;5.088;2024-01-15T15:51:04;5.30;84.10
69626;DHT22;56847;51.984;5.088;2024-01-15T15:53:31;5.30;84.10
69626;DHT22;56847;51.984;5.088;2024-01-15T15:55:58;5.40;84.20
69626;DHT22;56847;51.984;5.088;2024-01-15T15:58:25;5.40;83.40
69626;DHT22;56847;51.984;5.088;2024-01-15T16:00:52;5.50;83.70
69626;DHT22;56847;51.984;5.088;2024-01-15T16:03:22;5.50;83.60
69626;DHT22;56847;51.984;5.088;2024-01-15T16:05:52;5.50;82.80